sensor_id;sensor_type;location;lat;lon;timestamp;pressure;altitude;pressure_sealevel;temperature;humidity
18918;BME280;9591;52.742;13.650;2024-02-16T00:02:13;101054.91;;;23.87;39.80
18918;BME280;9591;52.742;13.650;2024-02-16T00:05:02;101058.88;;;23.72;40.16
18918;BME280;9591;52.742;13.650;2024-02-16T00:07:50;101062.41;;;23.83;40.27
18918;BME280;9591;52.742;13.650;2024-02-16T00:10:37;101048.22;;;23.59;40.64
18918;BME280;9591;52.742;13.650;2024-02-16T00:13:24;101048.31;;;23.69;40.16
18918;BME280;9591;52.742;13.650;2024-02-16T00:16:11;101057.41;;;23.79;40.09
18918;BME280;9591;52.742;13.650;2024-02-16T00:18:58;101061.56;;;23.83;39.66
18918;BME280;9591;52.742;13.650;2024-02-16T00:21:46;101062.00;;;23.99;39.17
18918;BME280;9591;52.742;13.650;2024-02-16T00:24:33;101059.16;;;24.12;38.84
18918;BME280;9591;52.742;13.650;2024-02-16T00:27:21;101055.72;;;24.10;39.07
18918;BME280;9591;52.742;13.650;2024-02-16T00:30:09;101056.63;;;23.88;39.36
18918;BME280;9591;52.742;13.650;2024-02-16T00:32:56;101059.81;;;23.93;39.55
18918;BME280;9591;52.742;13.650;2024-02-16T00:35:43;101041.88;;;23.92;39.10
18918;BME280;9591;52.742;13.650;2024-02-16T00:38:35;101047.84;;;24.07;39.06
18918;BME280;9591;52.742;13.650;2024-02-16T00:41:22;101041.75;;;23.94;39.33
18918;BME280;9591;52.742;13.650;2024-02-16T00:44:09;101048.03;;;23.83;39.54
18918;BME280;9591;52.742;13.650;2024-02-16T00:46:56;101052.50;;;23.50;40.08
18918;BME280;9591;52.742;13.650;2024-02-16T00:49:43;101050.13;;;23.91;39.36
18918;BME280;9591;52.742;13.650;2024-02-16T00:52:31;101041.75;;;23.94;39.70
18918;BME280;9591;52.742;13.650;2024-02-16T00:55:20;101038.88;;;24.06;39.13
18918;BME280;9591;52.742;13.650;2024-02-16T00:58:07;101040.13;;;24.02;39.05
18918;BME280;9591;52.742;13.650;2024-02-16T01:00:54;101039.38;;;24.00;38.87
18918;BME280;9591;52.742;13.650;2024-02-16T01:03:41;101034.19;;;24.08;38.51
18918;BME280;9591;52.742;13.650;2024-02-16T01:06:28;101027.06;;;23.42;39.90
18918;BME280;9591;52.742;13.650;2024-02-16T01:09:15;101036.66;;;23.57;39.21
18918;BME280;9591;52.742;13.650;2024-02-16T01:12:03;101031.28;;;23.12;40.14
18918;BME280;9591;52.742;13.650;2024-02-16T01:14:50;101030.19;;;23.15;39.93
18918;BME280;9591;52.742;13.650;2024-02-16T01:17:37;101026.88;;;23.11;40.37
18918;BME280;9591;52.742;13.650;2024-02-16T01:20:25;101020.97;;;23.29;39.73
18918;BME280;9591;52.742;13.650;2024-02-16T01:23:12;101024.03;;;23.02;39.87
18918;BME280;9591;52.742;13.650;2024-02-16T01:25:59;101018.25;;;22.95;40.37
18918;BME280;9591;52.742;13.650;2024-02-16T01:28:47;101015.50;;;22.73;40.49
18918;BME280;9591;52.742;13.650;2024-02-16T01:31:34;101018.19;;;22.50;40.92
18918;BME280;9591;52.742;13.650;2024-02-16T01:34:22;101013.47;;;22.99;40.20
18918;BME280;9591;52.742;13.650;2024-02-16T01:37:09;101019.59;;;22.89;40.29
18918;BME280;9591;52.742;13.650;2024-02-16T01:39:55;101017.03;;;22.99;40.17
18918;BME280;9591;52.742;13.650;2024-02-16T01:42:42;101014.41;;;22.75;40.49
18918;BME280;9591;52.742;13.650;2024-02-16T01:45:31;101011.31;;;22.69;40.64
18918;BME280;9591;52.742;13.650;2024-02-16T01:48:18;101011.28;;;22.35;41.30
18918;BME280;9591;52.742;13.650;2024-02-16T01:51:06;101016.47;;;22.49;41.06
18918;BME280;9591;52.742;13.650;2024-02-16T01:53:55;101014.09;;;22.34;41.17
18918;BME280;9591;52.742;13.650;2024-02-16T01:56:42;101003.31;;;22.56;41.08
18918;BME280;9591;52.742;13.650;2024-02-16T01:59:29;101002.16;;;22.25;41.62
18918;BME280;9591;52.742;13.650;2024-02-16T02:02:17;100998.09;;;22.19;41.61
18918;BME280;9591;52.742;13.650;2024-02-16T02:05:04;100997.94;;;22.45;41.06
18918;BME280;9591;52.742;13.650;2024-02-16T02:07:52;100990.31;;;22.39;40.95
18918;BME280;9591;52.742;13.650;2024-02-16T02:10:39;100976.56;;;22.31;40.73
18918;BME280;9591;52.742;13.650;2024-02-16T02:13:26;100981.72;;;22.56;40.16
18918;BME280;9591;52.742;13.650;2024-02-16T02:16:13;100978.84;;;22.81;39.80
18918;BME280;9591;52.742;13.650;2024-02-16T02:19:01;100978.75;;;22.94;39.35
18918;BME280;9591;52.742;13.650;2024-02-16T02:21:48;100972.97;;;22.87;39.69
18918;BME280;9591;52.742;13.650;2024-02-16T02:24:37;100974.00;;;22.63;39.98
18918;BME280;9591;52.742;13.650;2024-02-16T02:27:24;100972.91;;;22.54;40.43
18918;BME280;9591;52.742;13.650;2024-02-16T02:30:11;100960.41;;;22.53;40.44
18918;BME280;9591;52.742;13.650;2024-02-16T02:32:58;100956.63;;;22.89;39.70
18918;BME280;9591;52.742;13.650;2024-02-16T02:35:45;100953.44;;;22.84;39.92
18918;BME280;9591;52.742;13.650;2024-02-16T02:38:32;100944.13;;;22.99;39.58
18918;BME280;9591;52.742;13.650;2024-02-16T02:41:20;100942.03;;;22.80;39.64
18918;BME280;9591;52.742;13.650;2024-02-16T02:44:07;100947.41;;;23.14;39.33
18918;BME280;9591;52.742;13.650;2024-02-16T02:46:54;100936.84;;;22.55;40.15
18918;BME280;9591;52.742;13.650;2024-02-16T02:49:41;100938.09;;;22.84;39.80
18918;BME280;9591;52.742;13.650;2024-02-16T02:52:28;100937.50;;;22.92;39.69
18918;BME280;9591;52.742;13.650;2024-02-16T02:55:15;100931.59;;;22.87;39.71
18918;BME280;9591;52.742;13.650;2024-02-16T02:58:04;100938.81;;;22.53;40.21
18918;BME280;9591;52.742;13.650;2024-02-16T03:00:51;100931.84;;;22.84;40.01
18918;BME280;9591;52.742;13.650;2024-02-16T03:03:39;100929.00;;;22.52;40.32
18918;BME280;9591;52.742;13.650;2024-02-16T03:06:25;100934.75;;;22.58;40.50
18918;BME280;9591;52.742;13.650;2024-02-16T03:09:13;100941.75;;;22.72;40.08
18918;BME280;9591;52.742;13.650;2024-02-16T03:12:00;100939.41;;;22.68;40.11
18918;BME280;9591;52.742;13.650;2024-02-16T03:14:48;100945.69;;;22.68;39.97
18918;BME280;9591;52.742;13.650;2024-02-16T03:17:35;100932.94;;;22.48;40.23
18918;BME280;9591;52.742;13.650;2024-02-16T03:20:22;100945.47;;;22.14;41.24
18918;BME280;9591;52.742;13.650;2024-02-16T03:23:09;100931.94;;;22.38;41.00
18918;BME280;9591;52.742;13.650;2024-02-16T03:25:56;100934.66;;;22.49;40.79
18918;BME280;9591;52.742;13.650;2024-02-16T03:28:44;100938.81;;;22.64;40.39
18918;BME280;9591;52.742;13.650;2024-02-16T03:31:34;100931.44;;;22.44;40.50
18918;BME280;9591;52.742;13.650;2024-02-16T03:34:21;100933.88;;;22.36;40.37
18918;BME280;9591;52.742;13.650;2024-02-16T03:37:08;100936.81;;;22.33;40.76
18918;BME280;9591;52.742;13.650;2024-02-16T03:39:55;100932.53;;;21.95;41.44
18918;BME280;9591;52.742;13.650;2024-02-16T03:42:42;100931.00;;;21.80;41.55
18918;BME280;9591;52.742;13.650;2024-02-16T03:45:29;100927.00;;;22.32;40.63
18918;BME280;9591;52.742;13.650;2024-02-16T03:48:17;100931.19;;;22.01;41.06
18918;BME280;9591;52.742;13.650;2024-02-16T03:51:04;100918.31;;;22.39;40.30
18918;BME280;9591;52.742;13.650;2024-02-16T03:53:50;100916.47;;;22.29;40.13
18918;BME280;9591;52.742;13.650;2024-02-16T03:56:37;100908.44;;;22.05;40.72
18918;BME280;9591;52.742;13.650;2024-02-16T03:59:24;100907.97;;;22.11;40.64
18918;BME280;9591;52.742;13.650;2024-02-16T04:02:11;100904.44;;;21.86;41.32
18918;BME280;9591;52.742;13.650;2024-02-16T04:05:00;100899.03;;;21.86;41.12
18918;BME280;9591;52.742;13.650;2024-02-16T04:07:48;100910.44;;;21.90;41.17
18918;BME280;9591;52.742;13.650;2024-02-16T04:10:36;100901.78;;;21.63;42.07
18918;BME280;9591;52.742;13.650;2024-02-16T04:13:22;100901.75;;;22.33;40.27
18918;BME280;9591;52.742;13.650;2024-02-16T04:16:09;100897.50;;;21.71;41.66
18918;BME280;9591;52.742;13.650;2024-02-16T04:18:56;100894.06;;;21.69;41.62
18918;BME280;9591;52.742;13.650;2024-02-16T04:21:44;100889.00;;;21.88;41.12
18918;BME280;9591;52.742;13.650;2024-02-16T04:24:31;100890.31;;;22.07;40.84
18918;BME280;9591;52.742;13.650;2024-02-16T04:27:18;100891.78;;;22.11;40.53
18918;BME280;9591;52.742;13.650;2024-02-16T04:30:06;100884.47;;;21.54;41.55
18918;BME280;9591;52.742;13.650;2024-02-16T04:32:53;100894.84;;;21.47;42.00
18918;BME280;9591;52.742;13.650;2024-02-16T04:35:40;100885.81;;;21.95;40.90
18918;BME280;9591;52.742;13.650;2024-02-16T04:38:28;100881.00;;;22.11;40.53
18918;BME280;9591;52.742;13.650;2024-02-16T04:41:15;100879.69;;;21.92;40.80
18918;BME280;9591;52.742;13.650;2024-02-16T04:44:02;100876.97;;;22.16;40.67
18918;BME280;9591;52.742;13.650;2024-02-16T04:46:50;100876.41;;;22.00;40.73
18918;BME280;9591;52.742;13.650;2024-02-16T04:49:38;100869.97;;;21.79;40.96
18918;BME280;9591;52.742;13.650;2024-02-16T04:52:25;100862.84;;;21.78;41.09
18918;BME280;9591;52.742;13.650;2024-02-16T04:55:16;100869.97;;;21.79;41.23
18918;BME280;9591;52.742;13.650;2024-02-16T04:58:03;100860.28;;;21.76;41.13
18918;BME280;9591;52.742;13.650;2024-02-16T05:00:54;100869.72;;;21.82;41.37
18918;BME280;9591;52.742;13.650;2024-02-16T05:03:41;100861.31;;;21.51;41.62
18918;BME280;9591;52.742;13.650;2024-02-16T05:06:28;100865.72;;;21.52;41.64
18918;BME280;9591;52.742;13.650;2024-02-16T05:09:15;100863.78;;;21.31;42.22
18918;BME280;9591;52.742;13.650;2024-02-16T05:12:04;100858.31;;;20.83;43.25
18918;BME280;9591;52.742;13.650;2024-02-16T05:14:52;100851.91;;;20.73;43.50
18918;BME280;9591;52.742;13.650;2024-02-16T05:17:39;100855.88;;;21.75;41.32
18918;BME280;9591;52.742;13.650;2024-02-16T05:20:25;100874.19;;;21.11;42.44
18918;BME280;9591;52.742;13.650;2024-02-16T05:23:12;100861.66;;;21.47;41.74
18918;BME280;9591;52.742;13.650;2024-02-16T05:25:59;100858.50;;;21.53;41.59
18918;BME280;9591;52.742;13.650;2024-02-16T05:28:47;100865.50;;;21.67;41.17
18918;BME280;9591;52.742;13.650;2024-02-16T05:31:34;100856.44;;;21.68;41.16
18918;BME280;9591;52.742;13.650;2024-02-16T05:34:21;100861.16;;;21.42;41.83
18918;BME280;9591;52.742;13.650;2024-02-16T05:37:08;100852.31;;;21.64;41.13
18918;BME280;9591;52.742;13.650;2024-02-16T05:39:55;100846.53;;;21.33;41.72
18918;BME280;9591;52.742;13.650;2024-02-16T05:42:53;100839.41;;;21.56;41.37
18918;BME280;9591;52.742;13.650;2024-02-16T05:45:45;100845.63;;;21.45;41.65
18918;BME280;9591;52.742;13.650;2024-02-16T05:48:32;100847.34;;;21.22;41.91
18918;BME280;9591;52.742;13.650;2024-02-16T05:51:20;100843.94;;;21.55;41.43
18918;BME280;9591;52.742;13.650;2024-02-16T05:54:07;100840.44;;;21.18;42.12
18918;BME280;9591;52.742;13.650;2024-02-16T05:56:54;100838.09;;;21.62;41.21
18918;BME280;9591;52.742;13.650;2024-02-16T05:59:41;100823.63;;;21.74;40.55
18918;BME280;9591;52.742;13.650;2024-02-16T06:02:29;100815.63;;;21.50;41.46
18918;BME280;9591;52.742;13.650;2024-02-16T06:05:16;100812.66;;;21.42;41.61
18918;BME280;9591;52.742;13.650;2024-02-16T06:08:06;100825.03;;;21.20;42.30
18918;BME280;9591;52.742;13.650;2024-02-16T06:10:53;100828.78;;;21.77;41.11
18918;BME280;9591;52.742;13.650;2024-02-16T06:13:40;100840.22;;;21.45;41.65
18918;BME280;9591;52.742;13.650;2024-02-16T06:16:27;100837.50;;;21.80;40.87
18918;BME280;9591;52.742;13.650;2024-02-16T06:19:15;100839.91;;;21.13;42.04
18918;BME280;9591;52.742;13.650;2024-02-16T06:22:03;100852.56;;;21.00;42.57
18918;BME280;9591;52.742;13.650;2024-02-16T06:24:49;100849.63;;;21.40;41.57
18918;BME280;9591;52.742;13.650;2024-02-16T06:27:36;100845.06;;;21.29;41.95
18918;BME280;9591;52.742;13.650;2024-02-16T06:30:23;100844.09;;;21.17;41.77
18918;BME280;9591;52.742;13.650;2024-02-16T06:33:10;100844.66;;;21.46;41.41
18918;BME280;9591;52.742;13.650;2024-02-16T06:35:58;100838.09;;;21.62;41.08
18918;BME280;9591;52.742;13.650;2024-02-16T06:38:45;100842.28;;;21.77;40.77
18918;BME280;9591;52.742;13.650;2024-02-16T06:41:32;100836.00;;;21.30;42.15
18918;BME280;9591;52.742;13.650;2024-02-16T06:44:19;100836.94;;;21.99;40.24
18918;BME280;9591;52.742;13.650;2024-02-16T06:47:08;100829.19;;;21.37;41.69
18918;BME280;9591;52.742;13.650;2024-02-16T06:49:55;100827.19;;;22.09;40.23
18918;BME280;9591;52.742;13.650;2024-02-16T06:52:44;100820.88;;;21.98;40.32
18918;BME280;9591;52.742;13.650;2024-02-16T06:55:31;100818.16;;;21.86;40.94
18918;BME280;9591;52.742;13.650;2024-02-16T06:58:18;100828.78;;;21.77;41.14
18918;BME280;9591;52.742;13.650;2024-02-16T07:01:05;100824.25;;;21.31;42.14
18918;BME280;9591;52.742;13.650;2024-02-16T07:03:53;100827.41;;;22.06;40.66
18918;BME280;9591;52.742;13.650;2024-02-16T07:06:40;100839.47;;;22.24;40.18
18918;BME280;9591;52.742;13.650;2024-02-16T07:09:29;100833.06;;;22.14;40.44
18918;BME280;9591;52.742;13.650;2024-02-16T07:12:16;100838.88;;;21.86;40.78
18918;BME280;9591;52.742;13.650;2024-02-16T07:15:03;100830.06;;;21.49;41.82
18918;BME280;9591;52.742;13.650;2024-02-16T07:17:50;100830.97;;;21.61;41.54
18918;BME280;9591;52.742;13.650;2024-02-16T07:20:37;100831.34;;;22.13;40.71
18918;BME280;9591;52.742;13.650;2024-02-16T07:23:24;100826.75;;;21.91;41.03
18918;BME280;9591;52.742;13.650;2024-02-16T07:26:13;100824.38;;;21.65;41.70
18918;BME280;9591;52.742;13.650;2024-02-16T07:29:00;100826.28;;;21.98;40.93
18918;BME280;9591;52.742;13.650;2024-02-16T07:31:46;100823.69;;;21.96;40.56
18918;BME280;9591;52.742;13.650;2024-02-16T07:34:35;100825.50;;;21.84;41.08
18918;BME280;9591;52.742;13.650;2024-02-16T07:37:22;100825.63;;;21.83;41.26
18918;BME280;9591;52.742;13.650;2024-02-16T07:40:09;100819.63;;;21.20;42.52
18918;BME280;9591;52.742;13.650;2024-02-16T07:42:58;100824.84;;;21.58;42.04
18918;BME280;9591;52.742;13.650;2024-02-16T07:45:44;100818.13;;;21.64;41.79
18918;BME280;9591;52.742;13.650;2024-02-16T07:48:32;100823.66;;;22.42;40.21
18918;BME280;9591;52.742;13.650;2024-02-16T07:51:19;100818.94;;;22.55;40.14
18918;BME280;9591;52.742;13.650;2024-02-16T07:57:52;100824.25;;;22.35;40.49
18918;BME280;9591;52.742;13.650;2024-02-16T08:00:40;100831.69;;;22.53;40.03
18918;BME280;9591;52.742;13.650;2024-02-16T08:03:27;100828.69;;;23.12;38.54
18918;BME280;9591;52.742;13.650;2024-02-16T08:06:14;100824.94;;;22.70;39.70
18918;BME280;9591;52.742;13.650;2024-02-16T08:09:02;100821.50;;;23.34;38.07
18918;BME280;9591;52.742;13.650;2024-02-16T08:11:49;100824.47;;;22.87;39.29
18918;BME280;9591;52.742;13.650;2024-02-16T08:14:37;100820.97;;;23.08;38.34
18918;BME280;9591;52.742;13.650;2024-02-16T08:17:26;100825.66;;;22.95;38.89
18918;BME280;9591;52.742;13.650;2024-02-16T08:20:13;100834.41;;;23.51;38.29
18918;BME280;9591;52.742;13.650;2024-02-16T08:22:59;100848.16;;;23.27;38.75
18918;BME280;9591;52.742;13.650;2024-02-16T08:25:46;100843.69;;;23.05;38.78
18918;BME280;9591;52.742;13.650;2024-02-16T08:28:33;100846.59;;;23.25;38.68
18918;BME280;9591;52.742;13.650;2024-02-16T08:31:21;100852.06;;;22.91;39.17
18918;BME280;9591;52.742;13.650;2024-02-16T08:34:09;100846.50;;;23.15;38.62
18918;BME280;9591;52.742;13.650;2024-02-16T08:36:57;100843.16;;;23.23;38.40
18918;BME280;9591;52.742;13.650;2024-02-16T08:39:45;100835.78;;;23.25;38.52
18918;BME280;9591;52.742;13.650;2024-02-16T08:42:31;100834.53;;;23.81;37.76
18918;BME280;9591;52.742;13.650;2024-02-16T08:45:18;100833.91;;;23.36;38.25
18918;BME280;9591;52.742;13.650;2024-02-16T08:48:06;100821.22;;;23.69;38.17
18918;BME280;9591;52.742;13.650;2024-02-16T08:50:56;100820.50;;;23.67;37.80
18918;BME280;9591;52.742;13.650;2024-02-16T08:53:43;100811.78;;;23.84;37.66
18918;BME280;9591;52.742;13.650;2024-02-16T08:56:30;100813.81;;;23.92;37.47
18918;BME280;9591;52.742;13.650;2024-02-16T08:59:17;100812.94;;;23.49;38.08
18918;BME280;9591;52.742;13.650;2024-02-16T09:02:07;100812.56;;;24.16;36.86
18918;BME280;9591;52.742;13.650;2024-02-16T09:04:54;100802.84;;;24.14;36.85
18918;BME280;9591;52.742;13.650;2024-02-16T09:07:43;100812.19;;;24.31;36.74
18918;BME280;9591;52.742;13.650;2024-02-16T09:10:29;100816.09;;;24.17;37.23
18918;BME280;9591;52.742;13.650;2024-02-16T09:13:17;100816.84;;;24.19;37.36
18918;BME280;9591;52.742;13.650;2024-02-16T09:16:17;100817.78;;;24.79;35.63
18918;BME280;9591;52.742;13.650;2024-02-16T09:19:09;100808.91;;;25.07;35.48
18918;BME280;9591;52.742;13.650;2024-02-16T09:21:56;100805.75;;;25.12;35.33
18918;BME280;9591;52.742;13.650;2024-02-16T09:24:45;100794.75;;;25.52;35.23
18918;BME280;9591;52.742;13.650;2024-02-16T09:27:32;100795.34;;;25.36;34.74
18918;BME280;9591;52.742;13.650;2024-02-16T09:30:19;100797.75;;;25.68;34.31
18918;BME280;9591;52.742;13.650;2024-02-16T09:33:07;100795.34;;;25.36;34.79
18918;BME280;9591;52.742;13.650;2024-02-16T09:35:54;100796.19;;;25.46;34.98
18918;BME280;9591;52.742;13.650;2024-02-16T09:38:40;100795.19;;;25.67;35.07
18918;BME280;9591;52.742;13.650;2024-02-16T09:41:29;100794.53;;;26.02;34.27
18918;BME280;9591;52.742;13.650;2024-02-16T09:44:16;100800.19;;;24.54;36.43
18918;BME280;9591;52.742;13.650;2024-02-16T09:47:03;100807.47;;;25.42;35.55
18918;BME280;9591;52.742;13.650;2024-02-16T09:49:52;100812.28;;;24.50;36.99
18918;BME280;9591;52.742;13.650;2024-02-16T09:52:40;100800.88;;;25.93;34.13
18918;BME280;9591;52.742;13.650;2024-02-16T09:55:32;100797.72;;;25.88;33.83
18918;BME280;9591;52.742;13.650;2024-02-16T09:58:20;100797.28;;;26.29;33.14
18918;BME280;9591;52.742;13.650;2024-02-16T10:01:07;100797.75;;;25.78;34.00
18918;BME280;9591;52.742;13.650;2024-02-16T10:03:54;100803.56;;;26.39;32.90
18918;BME280;9591;52.742;13.650;2024-02-16T10:06:47;100800.47;;;25.39;34.27
18918;BME280;9591;52.742;13.650;2024-02-16T10:09:34;100801.59;;;25.56;34.09
18918;BME280;9591;52.742;13.650;2024-02-16T10:12:21;100817.72;;;25.96;33.82
18918;BME280;9591;52.742;13.650;2024-02-16T10:15:10;100819.03;;;26.20;33.49
18918;BME280;9591;52.742;13.650;2024-02-16T10:17:57;100821.91;;;26.18;32.90
18918;BME280;9591;52.742;13.650;2024-02-16T10:20:44;100805.59;;;25.33;33.82
18918;BME280;9591;52.742;13.650;2024-02-16T10:23:31;100810.03;;;25.72;34.01
18918;BME280;9591;52.742;13.650;2024-02-16T10:26:20;100819.41;;;25.97;33.58
18918;BME280;9591;52.742;13.650;2024-02-16T10:29:09;100813.56;;;26.29;32.82
18918;BME280;9591;52.742;13.650;2024-02-16T10:31:58;100821.47;;;26.23;34.08
18918;BME280;9591;52.742;13.650;2024-02-16T10:34:45;100805.63;;;26.18;33.37
18918;BME280;9591;52.742;13.650;2024-02-16T10:37:32;100808.78;;;26.13;33.46
18918;BME280;9591;52.742;13.650;2024-02-16T10:40:20;100806.19;;;26.31;33.56
18918;BME280;9591;52.742;13.650;2024-02-16T10:43:09;100795.53;;;26.48;32.38
18918;BME280;9591;52.742;13.650;2024-02-16T10:45:56;100800.47;;;26.62;33.38
18918;BME280;9591;52.742;13.650;2024-02-16T10:48:45;100796.63;;;26.55;32.62
18918;BME280;9591;52.742;13.650;2024-02-16T10:51:36;100792.31;;;25.59;33.77
18918;BME280;9591;52.742;13.650;2024-02-16T10:54:28;100789.44;;;26.36;33.43
18918;BME280;9591;52.742;13.650;2024-02-16T10:57:16;100796.22;;;26.12;33.07
18918;BME280;9591;52.742;13.650;2024-02-16T11:00:08;100791.81;;;26.02;33.26
18918;BME280;9591;52.742;13.650;2024-02-16T11:02:57;100782.47;;;25.87;33.27
18918;BME280;9591;52.742;13.650;2024-02-16T11:05:45;100783.34;;;26.14;33.32
18918;BME280;9591;52.742;13.650;2024-02-16T11:08:38;100783.50;;;26.50;33.01
18918;BME280;9591;52.742;13.650;2024-02-16T11:11:25;100787.88;;;26.24;33.37
18918;BME280;9591;52.742;13.650;2024-02-16T11:14:15;100778.59;;;26.26;33.06
18918;BME280;9591;52.742;13.650;2024-02-16T11:17:02;100778.88;;;25.96;33.90
18918;BME280;9591;52.742;13.650;2024-02-16T11:19:54;100770.22;;;26.10;33.17
18918;BME280;9591;52.742;13.650;2024-02-16T11:22:42;100766.25;;;26.87;32.90
18918;BME280;9591;52.742;13.650;2024-02-16T11:25:32;100767.81;;;26.89;32.46
18918;BME280;9591;52.742;13.650;2024-02-16T11:28:20;100751.47;;;26.99;31.79
18918;BME280;9591;52.742;13.650;2024-02-16T11:31:07;100763.19;;;26.54;32.92
18918;BME280;9591;52.742;13.650;2024-02-16T11:33:54;100753.00;;;26.84;32.69
18918;BME280;9591;52.742;13.650;2024-02-16T11:36:41;100749.03;;;26.78;32.76
18918;BME280;9591;52.742;13.650;2024-02-16T11:39:29;100756.69;;;27.10;32.37
18918;BME280;9591;52.742;13.650;2024-02-16T11:42:19;100745.34;;;26.97;31.99
18918;BME280;9591;52.742;13.650;2024-02-16T11:45:10;100748.91;;;26.80;32.54
18918;BME280;9591;52.742;13.650;2024-02-16T11:48:05;100744.47;;;26.96;32.33
18918;BME280;9591;52.742;13.650;2024-02-16T11:50:59;100741.94;;;28.08;30.99
18918;BME280;9591;52.742;13.650;2024-02-16T11:53:55;100747.66;;;27.09;31.68
18918;BME280;9591;52.742;13.650;2024-02-16T11:56:44;100747.59;;;27.01;32.12
18918;BME280;9591;52.742;13.650;2024-02-16T11:59:31;100742.63;;;28.10;30.66
18918;BME280;9591;52.742;13.650;2024-02-16T12:02:20;100752.06;;;27.64;31.13
18918;BME280;9591;52.742;13.650;2024-02-16T12:05:07;100744.88;;;26.29;33.36
18918;BME280;9591;52.742;13.650;2024-02-16T12:07:57;100758.38;;;26.11;32.82
18918;BME280;9591;52.742;13.650;2024-02-16T12:10:46;100753.00;;;26.38;33.16
18918;BME280;9591;52.742;13.650;2024-02-16T12:13:35;100747.09;;;26.88;31.75
18918;BME280;9591;52.742;13.650;2024-02-16T12:16:22;100750.88;;;26.32;32.77
18918;BME280;9591;52.742;13.650;2024-02-16T12:19:12;100754.25;;;26.44;32.87
18918;BME280;9591;52.742;13.650;2024-02-16T12:21:59;100751.19;;;25.83;33.83
18918;BME280;9591;52.742;13.650;2024-02-16T12:24:46;100752.34;;;26.17;33.64
18918;BME280;9591;52.742;13.650;2024-02-16T12:27:34;100751.41;;;27.08;32.44
18918;BME280;9591;52.742;13.650;2024-02-16T12:30:23;100743.84;;;26.85;32.68
18918;BME280;9591;52.742;13.650;2024-02-16T12:33:12;100745.88;;;26.83;32.65
18918;BME280;9591;52.742;13.650;2024-02-16T12:36:00;100752.41;;;27.25;31.98
18918;BME280;9591;52.742;13.650;2024-02-16T12:38:47;100752.16;;;26.83;31.92
18918;BME280;9591;52.742;13.650;2024-02-16T12:41:34;100753.97;;;27.10;32.50
18918;BME280;9591;52.742;13.650;2024-02-16T12:44:21;100749.94;;;26.51;33.16
18918;BME280;9591;52.742;13.650;2024-02-16T12:47:09;100749.72;;;26.62;33.01
18918;BME280;9591;52.742;13.650;2024-02-16T12:49:56;100750.41;;;26.64;33.43
18918;BME280;9591;52.742;13.650;2024-02-16T12:52:44;100748.09;;;26.87;33.27
18918;BME280;9591;52.742;13.650;2024-02-16T12:55:43;100756.84;;;27.08;33.03
18918;BME280;9591;52.742;13.650;2024-02-16T12:58:30;100746.66;;;27.28;33.12
18918;BME280;9591;52.742;13.650;2024-02-16T13:01:17;100747.31;;;26.95;32.86
18918;BME280;9591;52.742;13.650;2024-02-16T13:04:12;100734.91;;;26.92;33.35
18918;BME280;9591;52.742;13.650;2024-02-16T13:07:07;100722.09;;;27.38;32.79
18918;BME280;9591;52.742;13.650;2024-02-16T13:09:53;100719.88;;;27.85;32.19
18918;BME280;9591;52.742;13.650;2024-02-16T13:12:40;100717.56;;;27.64;32.62
18918;BME280;9591;52.742;13.650;2024-02-16T13:15:28;100722.53;;;27.51;32.13
18918;BME280;9591;52.742;13.650;2024-02-16T13:18:15;100726.66;;;27.81;32.08
18918;BME280;9591;52.742;13.650;2024-02-16T13:21:04;100721.41;;;27.88;33.19
18918;BME280;9591;52.742;13.650;2024-02-16T13:23:50;100719.50;;;28.40;31.54
18918;BME280;9591;52.742;13.650;2024-02-16T13:26:37;100710.94;;;28.27;31.75
18918;BME280;9591;52.742;13.650;2024-02-16T13:29:24;100708.94;;;27.77;32.20
18918;BME280;9591;52.742;13.650;2024-02-16T13:32:11;100704.88;;;27.29;33.09
18918;BME280;9591;52.742;13.650;2024-02-16T13:34:58;100695.16;;;27.70;32.93
18918;BME280;9591;52.742;13.650;2024-02-16T13:37:46;100700.75;;;26.54;33.02
18918;BME280;9591;52.742;13.650;2024-02-16T13:40:33;100701.13;;;26.95;32.35
18918;BME280;9591;52.742;13.650;2024-02-16T13:43:21;100689.41;;;26.94;32.27
18918;BME280;9591;52.742;13.650;2024-02-16T13:46:07;100700.72;;;27.43;32.27
18918;BME280;9591;52.742;13.650;2024-02-16T13:48:54;100695.72;;;28.16;31.06
18918;BME280;9591;52.742;13.650;2024-02-16T13:51:42;100702.16;;;27.81;31.82
18918;BME280;9591;52.742;13.650;2024-02-16T13:54:30;100700.63;;;27.79;32.00
18918;BME280;9591;52.742;13.650;2024-02-16T13:57:17;100702.22;;;27.89;31.36
18918;BME280;9591;52.742;13.650;2024-02-16T14:00:05;100709.91;;;27.94;31.38
18918;BME280;9591;52.742;13.650;2024-02-16T14:02:56;100706.38;;;27.75;31.65
18918;BME280;9591;52.742;13.650;2024-02-16T14:05:44;100692.94;;;27.74;31.47
18918;BME280;9591;52.742;13.650;2024-02-16T14:08:33;100702.78;;;27.67;32.10
18918;BME280;9591;52.742;13.650;2024-02-16T14:11:21;100699.69;;;27.62;31.76
18918;BME280;9591;52.742;13.650;2024-02-16T14:14:08;100702.00;;;27.57;31.72
18918;BME280;9591;52.742;13.650;2024-02-16T14:17:09;100707.59;;;27.12;31.98
18918;BME280;9591;52.742;13.650;2024-02-16T14:19:56;100716.44;;;26.33;33.76
18918;BME280;9591;52.742;13.650;2024-02-16T14:22:43;100705.22;;;27.78;31.90
18918;BME280;9591;52.742;13.650;2024-02-16T14:25:30;100707.22;;;27.68;32.01
18918;BME280;9591;52.742;13.650;2024-02-16T14:28:18;100696.22;;;27.34;32.40
18918;BME280;9591;52.742;13.650;2024-02-16T14:31:05;100691.22;;;27.99;31.33
18918;BME280;9591;52.742;13.650;2024-02-16T14:33:52;100691.06;;;27.74;31.38
18918;BME280;9591;52.742;13.650;2024-02-16T14:36:39;100690.69;;;27.95;31.42
18918;BME280;9591;52.742;13.650;2024-02-16T14:39:27;100694.38;;;27.86;31.60
18918;BME280;9591;52.742;13.650;2024-02-16T14:42:14;100697.13;;;27.94;31.57